Southfield, Michigan
Current Conditions -  °F | °C
As of 7:55 AM on Saturday 25 Oct 2014 (Local Time) from KVLL Reporting Station
Haze Haze  
Wind Chill: 47°   Ceiling: 4400
Heat Index: 50°   Visibility: 5mi
Dew Point: 46°   Wind: 6mph
Humidity: 87%   Direction: 230°SW
Pressure: 29.86"   Gusts: NA
Location:  42.48°N, 83.24°W
Report Text: KVLL 251155Z AUTO 23005KT 5SM BR BKN044 OVC049 10/08 A2986 RMK AO2 T00980077 10105 20086
Loading
Personal Weather Stations






























Interactive Weather Map New forecast layout! Learn more

10-Day Weather Forecast

Advertisements
Track Severe Weather on mobile